Time;durP1;ratioP1;P1;durP2;ratioP2;P2;SDS_P1;SDS_P2;PMS_P1;PMS_P2;Temp;Humidity;BMP_temperature;BMP_pressure;BME280_temperature;BME280_humidity;BME280_pressure;Samples;Min_cycle;Max_cycle;Signal;HPM_P1;HPM_P2
2023/07/18 00:01:33;;;;;;;6.27;2.43;;;13.60;99.90;;;;;;5015924;28;20188;-78
2023/07/18 00:03:58;;;;;;;2.90;2.03;;;13.50;99.90;;;;;;5015705;28;20235;-78
2023/07/18 00:06:24;;;;;;;4.77;2.10;;;13.50;99.90;;;;;;5017018;28;20185;-79
2023/07/18 00:08:50;;;;;;;4.27;2.17;;;13.40;99.90;;;;;;5017931;28;20173;-79
2023/07/18 00:11:16;;;;;;;3.50;2.87;;;13.40;99.90;;;;;;5019368;28;20196;-79
2023/07/18 00:13:42;;;;;;;3.23;2.30;;;13.30;99.90;;;;;;5020957;28;20211;-78
2023/07/18 00:16:08;;;;;;;5.77;2.53;;;13.30;99.90;;;;;;5017325;28;20181;-78
2023/07/18 00:18:34;;;;;;;4.63;2.60;;;13.20;99.90;;;;;;5027504;28;20169;-78
2023/07/18 00:21:00;;;;;;;3.67;2.60;;;13.30;99.90;;;;;;5036641;28;20192;-78
2023/07/18 00:23:25;;;;;;;4.57;2.80;;;13.20;99.90;;;;;;5034457;28;20180;-78
2023/07/18 00:25:51;;;;;;;4.97;2.47;;;13.20;99.90;;;;;;5033512;28;20177;-78
2023/07/18 00:28:16;;;;;;;3.53;2.73;;;13.20;99.90;;;;;;5035953;28;20251;-79
2023/07/18 00:30:42;;;;;;;3.33;2.40;;;13.20;99.90;;;;;;5034879;28;20247;-78
2023/07/18 00:33:07;;;;;;;5.17;2.50;;;13.10;99.90;;;;;;5030796;28;20291;-79
2023/07/18 00:35:34;;;;;;;5.10;2.50;;;13.10;99.90;;;;;;5017091;28;20209;-78
2023/07/18 00:38:00;;;;;;;5.27;2.40;;;13.10;99.90;;;;;;5016344;28;20656;-78
2023/07/18 00:40:25;;;;;;;3.93;2.57;;;13.10;99.90;;;;;;5017698;28;20192;-78
2023/07/18 00:42:51;;;;;;;4.37;2.67;;;13.10;99.90;;;;;;5017120;28;20177;-78
2023/07/18 00:45:17;;;;;;;6.23;2.93;;;13.10;99.90;;;;;;5018214;28;20599;-78
2023/07/18 00:47:45;;;;;;;3.60;2.53;;;13.10;99.90;;;;;;5015686;28;20185;-78
2023/07/18 00:50:14;;;;;;;4.43;3.20;;;13.00;99.90;;;;;;5017931;28;20192;-78
2023/07/18 00:52:49;;;;;;;7.80;3.03;;;13.10;99.90;;;;;;5016046;28;20292;-79
2023/07/18 00:55:16;;;;;;;5.00;2.50;;;13.10;99.90;;;;;;5017266;28;20176;-78
2023/07/18 00:57:43;;;;;;;5.27;2.70;;;13.00;99.90;;;;;;5015604;28;20176;-78
2023/07/18 01:00:13;;;;;;;5.37;2.30;;;13.00;99.90;;;;;;5016558;28;20193;-79
2023/07/18 01:02:41;;;;;;;5.20;2.27;;;13.00;99.90;;;;;;5014979;28;20238;-78
2023/07/18 01:05:08;;;;;;;3.27;2.13;;;13.00;99.90;;;;;;5014257;28;20196;-78
2023/07/18 01:07:35;;;;;;;3.40;2.40;;;12.90;99.90;;;;;;5016339;28;20177;-78
2023/07/18 01:10:26;;;;;;;4.63;2.40;;;12.90;99.90;;;;;;5016234;28;20264;-78
2023/07/18 01:12:54;;;;;;;5.60;2.30;;;12.90;99.90;;;;;;5015752;28;20200;-78
2023/07/18 01:15:20;;;;;;;3.33;2.33;;;12.90;99.90;;;;;;5014555;28;20702;-78
2023/07/18 01:17:47;;;;;;;4.43;2.50;;;12.90;99.90;;;;;;5015068;28;20549;-78
2023/07/18 01:20:22;;;;;;;3.33;2.30;;;12.80;99.90;;;;;;5015512;28;20203;-78
2023/07/18 01:22:51;;;;;;;6.73;2.33;;;12.80;99.90;;;;;;5013822;28;20184;-78
2023/07/18 01:25:17;;;;;;;6.43;2.70;;;12.80;99.90;;;;;;5013427;28;20193;-78
2023/07/18 01:27:44;;;;;;;4.33;2.50;;;12.80;99.90;;;;;;5015143;28;20176;-78
2023/07/18 01:30:10;;;;;;;4.63;2.67;;;12.80;99.90;;;;;;5014904;28;20195;-78
2023/07/18 01:32:35;;;;;;;3.97;2.47;;;12.80;99.90;;;;;;5014839;28;20185;-78
2023/07/18 01:35:08;;;;;;;6.07;2.80;;;12.70;99.90;;;;;;5014062;28;20268;-78
2023/07/18 01:37:35;;;;;;;4.60;2.47;;;12.70;99.90;;;;;;5014618;28;20181;-78
2023/07/18 01:40:01;;;;;;;5.63;2.43;;;12.70;99.90;;;;;;5012938;28;20201;-78
2023/07/18 01:42:26;;;;;;;3.73;2.50;;;12.70;99.90;;;;;;5013240;28;20548;-78
2023/07/18 01:44:52;;;;;;;2.90;2.43;;;12.70;99.90;;;;;;5012698;28;20185;-78
2023/07/18 01:47:18;;;;;;;7.70;2.43;;;12.60;99.90;;;;;;5014651;28;20207;-78
2023/07/18 01:49:43;;;;;;;6.53;2.43;;;12.60;99.90;;;;;;5014108;28;20575;-78
2023/07/18 01:52:10;;;;;;;10.37;2.70;;;12.70;99.90;;;;;;5014354;28;20181;-78
2023/07/18 01:54:36;;;;;;;5.63;2.63;;;12.60;99.90;;;;;;5013077;28;20673;-78
2023/07/18 01:57:01;;;;;;;5.57;2.93;;;12.70;99.90;;;;;;5014550;28;20227;-78
2023/07/18 01:59:27;;;;;;;4.57;2.70;;;12.60;99.90;;;;;;5014734;28;20185;-78
2023/07/18 02:01:52;;;;;;;3.63;2.80;;;12.70;99.90;;;;;;5015084;28;20251;-78
2023/07/18 02:04:18;;;;;;;7.17;2.77;;;12.60;99.90;;;;;;5010950;28;21251;-79
2023/07/18 02:06:44;;;;;;;8.60;2.90;;;12.60;99.90;;;;;;5013000;28;20239;-78
2023/07/18 02:09:10;;;;;;;5.33;3.00;;;12.70;99.90;;;;;;5014888;28;20173;-78
2023/07/18 02:11:35;;;;;;;3.43;2.70;;;12.60;99.90;;;;;;5012794;28;20651;-77
2023/07/18 02:14:03;;;;;;;5.77;2.67;;;12.60;99.90;;;;;;5017120;28;20231;-78
2023/07/18 02:16:29;;;;;;;4.13;2.20;;;12.60;99.90;;;;;;5017777;28;20173;-78
2023/07/18 02:18:59;;;;;;;4.43;2.50;;;12.60;99.90;;;;;;5016390;28;20176;-78
2023/07/18 02:21:24;;;;;;;5.57;2.47;;;12.70;99.90;;;;;;5018775;28;20605;-77
2023/07/18 02:23:50;;;;;;;5.93;2.63;;;12.60;99.90;;;;;;5015720;28;21299;-78
2023/07/18 02:26:15;;;;;;;5.47;2.33;;;12.60;99.90;;;;;;5018435;28;20311;-78
2023/07/18 02:28:41;;;;;;;9.80;2.90;;;12.70;99.90;;;;;;5017013;28;20184;-77
2023/07/18 02:31:07;;;;;;;4.97;2.70;;;12.60;99.90;;;;;;5016676;28;20266;-78
2023/07/18 02:33:32;;;;;;;5.27;2.90;;;12.60;99.90;;;;;;5016920;28;20306;-77
2023/07/18 02:35:58;;;;;;;2.73;2.33;;;12.60;99.90;;;;;;5016825;28;20205;-77
2023/07/18 02:38:24;;;;;;;3.47;2.43;;;12.70;99.90;;;;;;5016074;28;20176;-78
2023/07/18 02:40:50;;;;;;;6.53;2.73;;;12.60;99.90;;;;;;5017392;28;20196;-77
2023/07/18 02:43:15;;;;;;;3.43;2.50;;;12.60;99.90;;;;;;5017658;28;20189;-78
2023/07/18 02:45:41;;;;;;;5.33;2.90;;;12.60;99.90;;;;;;5014835;28;20262;-78
2023/07/18 02:48:06;;;;;;;6.50;2.70;;;12.60;99.90;;;;;;5017965;28;20191;-77
2023/07/18 02:50:32;;;;;;;6.40;3.43;;;12.60;99.90;;;;;;5017856;28;20291;-78
2023/07/18 02:52:58;;;;;;;7.00;2.57;;;12.60;99.90;;;;;;5016446;28;20201;-78
2023/07/18 02:55:24;;;;;;;3.87;2.53;;;12.60;99.90;;;;;;5016156;28;20238;-78
2023/07/18 02:57:51;;;;;;;6.37;2.43;;;12.60;99.90;;;;;;5016062;28;20271;-77
2023/07/18 03:00:20;;;;;;;5.37;2.83;;;12.60;99.90;;;;;;5015421;28;20208;-78
2023/07/18 03:02:49;;;;;;;9.00;2.93;;;12.60;99.90;;;;;;5015849;28;20176;-78
2023/07/18 03:05:18;;;;;;;3.97;2.50;;;12.60;99.90;;;;;;5014819;28;20642;-78
2023/07/18 03:07:46;;;;;;;4.47;2.60;;;12.60;99.90;;;;;;5015851;28;20624;-78
2023/07/18 03:10:13;;;;;;;6.10;2.70;;;12.60;99.90;;;;;;5015596;28;20260;-78
2023/07/18 03:12:40;;;;;;;5.27;2.33;;;12.60;99.90;;;;;;5016196;28;20188;-78
2023/07/18 03:15:08;;;;;;;5.03;2.83;;;12.60;99.90;;;;;;5015124;28;20213;-77
2023/07/18 03:17:34;;;;;;;3.67;2.70;;;12.60;99.90;;;;;;5015689;28;20211;-78
2023/07/18 03:19:59;;;;;;;4.50;2.80;;;12.60;99.90;;;;;;5017314;28;20189;-78
2023/07/18 03:22:25;;;;;;;5.33;2.80;;;12.50;99.90;;;;;;5017592;28;20181;-77
2023/07/18 03:24:54;;;;;;;5.20;2.70;;;12.60;99.90;;;;;;5014866;28;20268;-77
2023/07/18 03:27:19;;;;;;;6.23;2.63;;;12.50;99.90;;;;;;5016842;28;20169;-77
2023/07/18 03:29:45;;;;;;;4.50;2.67;;;12.50;99.90;;;;;;5015880;28;20542;-77
2023/07/18 03:32:10;;;;;;;4.27;2.60;;;12.50;99.90;;;;;;5016454;28;20169;-78
2023/07/18 03:34:36;;;;;;;6.37;2.73;;;12.50;99.90;;;;;;5012951;28;20227;-77
2023/07/18 03:37:01;;;;;;;6.97;2.80;;;12.40;99.90;;;;;;5015028;28;20177;-77
2023/07/18 03:39:27;;;;;;;6.63;2.97;;;12.40;99.90;;;;;;5016206;28;20204;-78
2023/07/18 03:41:52;;;;;;;6.57;3.13;;;12.40;99.90;;;;;;5016509;28;20173;-77
2023/07/18 03:44:18;;;;;;;4.93;2.63;;;12.30;99.90;;;;;;5014916;28;20656;-77
2023/07/18 03:46:44;;;;;;;5.30;3.37;;;12.30;99.90;;;;;;5016321;28;20188;-78
2023/07/18 03:49:09;;;;;;;5.27;2.70;;;12.30;99.90;;;;;;5015197;28;20643;-77
2023/07/18 03:51:35;;;;;;;5.80;2.83;;;12.30;99.90;;;;;;5014711;28;20224;-77
2023/07/18 03:54:02;;;;;;;4.57;2.50;;;12.30;99.90;;;;;;5014774;28;20205;-77
2023/07/18 03:56:30;;;;;;;9.30;4.13;;;12.20;99.90;;;;;;5014543;28;20177;-77
2023/07/18 03:58:56;;;;;;;5.60;2.57;;;12.30;99.90;;;;;;5016790;28;20175;-77
2023/07/18 04:01:22;;;;;;;9.17;3.00;;;12.30;99.90;;;;;;5016261;28;20696;-77
2023/07/18 04:03:47;;;;;;;6.90;2.70;;;12.30;99.90;;;;;;5013425;28;20558;-78
2023/07/18 04:06:13;;;;;;;4.57;2.47;;;12.30;99.90;;;;;;5014825;28;20244;-78
2023/07/18 04:08:38;;;;;;;6.53;2.90;;;12.30;99.90;;;;;;5014643;28;20181;-78
2023/07/18 04:11:04;;;;;;;5.13;2.77;;;12.30;99.90;;;;;;5016047;28;20267;-78
2023/07/18 04:13:29;;;;;;;4.47;2.60;;;12.30;99.90;;;;;;5015586;28;20294;-77
2023/07/18 04:15:55;;;;;;;2.93;2.40;;;12.30;99.90;;;;;;5015977;28;20177;-78
2023/07/18 04:18:21;;;;;;;8.03;2.60;;;12.30;99.90;;;;;;5015836;28;20176;-77
2023/07/18 04:20:49;;;;;;;6.20;2.47;;;12.20;99.90;;;;;;5015414;28;20645;-77
2023/07/18 04:23:14;;;;;;;4.13;2.90;;;12.20;99.90;;;;;;5014969;28;20172;-77
2023/07/18 04:25:56;;;;;;;7.13;2.67;;;12.20;99.90;;;;;;5014118;28;20729;-77
2023/07/18 04:28:22;;;;;;;3.50;2.60;;;12.20;99.90;;;;;;5015461;28;20605;-77
2023/07/18 04:30:48;;;;;;;7.03;2.97;;;12.10;99.90;;;;;;5013618;28;20201;-77
2023/07/18 04:33:13;;;;;;;3.10;2.27;;;12.20;99.90;;;;;;5015194;28;20208;-77
2023/07/18 04:35:39;;;;;;;6.10;2.97;;;12.20;99.90;;;;;;5012636;28;20188;-77
2023/07/18 04:38:05;;;;;;;6.57;2.60;;;12.20;99.90;;;;;;5015360;28;20172;-77
2023/07/18 04:40:31;;;;;;;4.13;2.53;;;12.20;99.90;;;;;;5015577;28;20197;-78
2023/07/18 04:42:56;;;;;;;5.80;2.87;;;12.20;99.90;;;;;;5015137;28;20188;-78
2023/07/18 04:45:22;;;;;;;4.97;2.73;;;12.30;99.90;;;;;;5013797;28;20212;-78
2023/07/18 04:47:47;;;;;;;10.60;3.33;;;12.30;99.90;;;;;;5015247;28;20215;-77
2023/07/18 04:50:13;;;;;;;6.70;3.20;;;12.30;99.90;;;;;;5015525;28;20705;-78
2023/07/18 04:52:39;;;;;;;5.07;2.63;;;12.40;99.90;;;;;;5015334;28;20212;-77
2023/07/18 04:55:05;;;;;;;7.13;2.97;;;12.40;99.90;;;;;;5011738;28;20590;-78
2023/07/18 04:57:30;;;;;;;7.43;3.13;;;12.40;99.90;;;;;;5014771;28;20205;-78
2023/07/18 04:59:56;;;;;;;5.23;3.03;;;12.40;99.90;;;;;;5015036;28;20192;-77
2023/07/18 05:02:21;;;;;;;7.60;3.40;;;12.50;99.90;;;;;;5014415;28;20173;-77
2023/07/18 05:04:48;;;;;;;4.90;3.00;;;12.50;99.90;;;;;;5014370;28;20181;-77
2023/07/18 05:07:14;;;;;;;6.53;3.20;;;12.50;99.90;;;;;;5013190;28;20219;-77
2023/07/18 05:09:40;;;;;;;5.70;3.13;;;12.50;99.90;;;;;;5014406;28;20276;-78
2023/07/18 05:12:06;;;;;;;4.77;3.23;;;12.50;99.90;;;;;;5014309;28;20244;-77
2023/07/18 05:14:32;;;;;;;4.53;2.90;;;12.60;99.90;;;;;;5014277;28;20204;-77
2023/07/18 05:16:57;;;;;;;5.03;3.17;;;12.60;99.90;;;;;;5015525;28;20196;-77
2023/07/18 05:19:23;;;;;;;5.57;3.53;;;12.60;99.90;;;;;;5022333;28;20279;-77
2023/07/18 05:21:50;;;;;;;7.43;3.20;;;12.70;99.90;;;;;;5019293;28;20180;-77
2023/07/18 05:24:15;;;;;;;5.83;3.30;;;12.70;99.90;;;;;;5013744;28;20176;-77
2023/07/18 05:26:42;;;;;;;6.43;3.43;;;12.80;99.90;;;;;;5014315;28;20181;-78
2023/07/18 05:29:07;;;;;;;6.00;3.80;;;12.80;99.90;;;;;;5014863;28;20180;-78
2023/07/18 05:31:33;;;;;;;5.57;3.87;;;12.90;99.90;;;;;;5014513;28;20231;-78
2023/07/18 05:33:58;;;;;;;6.00;3.53;;;12.90;99.90;;;;;;5014255;28;20205;-77
2023/07/18 05:36:25;;;;;;;5.37;3.70;;;13.00;99.90;;;;;;5014169;28;20192;-77
2023/07/18 05:38:51;;;;;;;5.90;3.40;;;13.00;99.90;;;;;;5013715;28;20253;-77
2023/07/18 05:41:16;;;;;;;7.93;3.50;;;13.10;99.90;;;;;;5013319;28;20647;-78
2023/07/18 05:43:42;;;;;;;7.93;4.57;;;13.10;99.90;;;;;;5013750;28;20181;-78
2023/07/18 05:46:07;;;;;;;5.80;3.90;;;13.20;99.90;;;;;;5014769;28;20177;-77
2023/07/18 05:48:33;;;;;;;10.63;4.33;;;13.20;99.90;;;;;;5014540;28;20177;-77
2023/07/18 05:51:00;;;;;;;5.67;3.93;;;13.30;99.90;;;;;;5014514;28;20728;-77
2023/07/18 05:53:26;;;;;;;6.17;3.80;;;13.30;99.90;;;;;;5012649;28;20672;-77
2023/07/18 05:55:52;;;;;;;7.17;3.53;;;13.40;99.90;;;;;;5013347;28;20226;-78
2023/07/18 05:58:18;;;;;;;8.07;4.07;;;13.50;99.90;;;;;;5013267;28;20177;-77
2023/07/18 06:00:43;;;;;;;9.73;4.60;;;13.50;99.90;;;;;;5013932;28;20656;-77
2023/07/18 06:03:09;;;;;;;4.60;3.57;;;13.60;99.90;;;;;;5014235;28;20177;-78
2023/07/18 06:05:34;;;;;;;7.07;4.10;;;13.60;99.90;;;;;;5013113;28;20180;-78
2023/07/18 06:08:00;;;;;;;9.13;3.70;;;13.70;99.90;;;;;;5014231;28;20173;-77
2023/07/18 06:10:25;;;;;;;6.70;4.07;;;13.90;99.90;;;;;;5016280;28;20230;-78
2023/07/18 06:12:51;;;;;;;6.63;3.53;;;13.80;99.90;;;;;;5014436;28;20212;-77
2023/07/18 06:15:18;;;;;;;9.40;4.30;;;13.90;99.90;;;;;;5014560;28;20180;-77
2023/07/18 06:17:44;;;;;;;7.57;3.77;;;13.90;99.90;;;;;;5015373;28;20596;-78
2023/07/18 06:20:12;;;;;;;5.80;3.70;;;14.00;99.90;;;;;;5020991;28;20548;-78
2023/07/18 06:22:37;;;;;;;9.07;4.30;;;14.00;99.90;;;;;;5014440;28;20173;-78
2023/07/18 06:25:03;;;;;;;10.43;4.93;;;14.10;99.90;;;;;;5013881;28;20179;-77
2023/07/18 06:27:29;;;;;;;5.43;3.73;;;14.20;99.90;;;;;;5013907;28;20178;-78
2023/07/18 06:29:54;;;;;;;7.50;3.77;;;14.30;99.90;;;;;;5012295;28;20684;-77
2023/07/18 06:32:21;;;;;;;7.17;3.83;;;14.30;99.90;;;;;;5013751;28;20212;-77
2023/07/18 06:34:47;;;;;;;9.53;3.60;;;14.40;99.90;;;;;;5013080;28;20312;-78
2023/07/18 06:37:12;;;;;;;5.83;4.10;;;14.50;99.90;;;;;;5013815;28;20243;-77
2023/07/18 06:39:38;;;;;;;4.90;3.23;;;14.50;99.90;;;;;;5012190;28;20217;-77
2023/07/18 06:42:05;;;;;;;7.23;3.50;;;14.60;99.90;;;;;;5012181;28;20196;-77
2023/07/18 06:44:31;;;;;;;8.27;3.40;;;14.60;99.90;;;;;;5013573;28;20177;-77
2023/07/18 06:46:57;;;;;;;8.20;3.63;;;14.70;99.90;;;;;;5013554;28;20205;-77
2023/07/18 06:49:22;;;;;;;4.77;2.90;;;14.80;99.90;;;;;;5013284;28;20197;-77
2023/07/18 06:51:49;;;;;;;8.13;3.27;;;14.80;99.90;;;;;;5013722;28;20169;-77
2023/07/18 06:54:15;;;;;;;7.87;3.37;;;14.90;99.90;;;;;;5013711;28;20632;-77
2023/07/18 06:56:42;;;;;;;7.13;3.10;;;14.80;99.90;;;;;;5012102;28;20208;-77
2023/07/18 06:59:08;;;;;;;7.07;3.03;;;15.00;99.90;;;;;;5014643;28;20545;-77
2023/07/18 07:01:34;;;;;;;6.20;3.30;;;15.00;99.90;;;;;;5017115;28;20172;-77
2023/07/18 07:04:01;;;;;;;5.33;2.93;;;15.10;99.90;;;;;;5015546;28;20271;-78
2023/07/18 07:06:26;;;;;;;9.27;3.27;;;15.20;99.90;;;;;;5015628;28;20236;-77
2023/07/18 07:08:52;;;;;;;5.77;3.00;;;15.30;99.90;;;;;;5016626;28;20189;-77
2023/07/18 07:11:18;;;;;;;5.27;2.83;;;15.40;99.90;;;;;;5016795;28;20228;-77
2023/07/18 07:13:44;;;;;;;5.60;2.70;;;15.40;99.90;;;;;;5015232;28;20239;-77
2023/07/18 07:16:10;;;;;;;6.63;3.00;;;15.50;99.90;;;;;;5016851;28;20177;-77
2023/07/18 07:18:36;;;;;;;9.93;3.87;;;15.60;99.90;;;;;;5017030;28;20177;-78
2023/07/18 07:21:02;;;;;;;7.80;3.07;;;15.60;99.90;;;;;;5015402;28;20545;-78
2023/07/18 07:23:30;;;;;;;5.23;3.27;;;15.70;99.90;;;;;;5015716;28;20664;-77
2023/07/18 07:25:56;;;;;;;4.73;3.10;;;15.80;99.90;;;;;;5016437;28;20169;-77
2023/07/18 07:28:24;;;;;;;5.23;2.90;;;15.90;99.90;;;;;;5017369;28;20176;-78
2023/07/18 07:30:51;;;;;;;4.53;2.87;;;16.00;99.90;;;;;;5023187;28;20223;-78
2023/07/18 07:33:17;;;;;;;5.23;3.00;;;16.00;99.90;;;;;;5027886;28;20247;-78
2023/07/18 07:35:43;;;;;;;7.80;3.30;;;16.10;99.90;;;;;;5020296;28;20189;-78
2023/07/18 07:38:09;;;;;;;8.70;3.60;;;16.40;99.90;;;;;;5016936;28;20180;-77
2023/07/18 07:40:35;;;;;;;9.77;3.30;;;16.30;99.90;;;;;;5015925;28;20196;-78
2023/07/18 07:43:00;;;;;;;7.27;3.17;;;16.40;99.90;;;;;;5015591;28;20185;-77
2023/07/18 07:45:26;;;;;;;7.67;3.40;;;16.60;99.90;;;;;;5016586;28;20224;-78
2023/07/18 07:47:51;;;;;;;8.60;3.37;;;16.70;99.90;;;;;;5015889;28;20243;-78
2023/07/18 07:50:17;;;;;;;5.10;2.90;;;16.70;99.90;;;;;;5015941;28;20207;-78
2023/07/18 07:52:43;;;;;;;6.17;2.73;;;16.80;99.90;;;;;;5016217;28;20185;-78
2023/07/18 07:55:11;;;;;;;4.73;2.67;;;16.80;99.90;;;;;;5016775;28;20165;-78
2023/07/18 07:57:37;;;;;;;8.67;2.90;;;16.90;99.90;;;;;;5015347;28;20664;-78
2023/07/18 08:00:03;;;;;;;6.00;2.80;;;16.90;1.00;;;;;;5017592;28;20196;-77
2023/07/18 08:02:29;;;;;;;7.37;3.17;;;17.00;1.00;;;;;;5014503;28;20310;-78
2023/07/18 08:04:55;;;;;;;4.37;2.93;;;17.00;1.00;;;;;;5014567;28;20280;-78
2023/07/18 08:07:20;;;;;;;7.90;3.70;;;17.10;1.00;;;;;;5015727;28;20205;-78
2023/07/18 08:09:46;;;;;;;5.27;2.67;;;17.10;99.90;;;;;;5015032;28;20197;-78
2023/07/18 08:12:12;;;;;;;6.37;1.97;;;17.20;1.00;;;;;;5016102;28;20665;-78
2023/07/18 08:14:38;;;;;;;6.40;2.50;;;17.30;33.00;;;;;;5015782;28;20197;-78
2023/07/18 08:17:05;;;;;;;3.23;1.90;;;17.40;1.00;;;;;;5016327;28;20259;-78
2023/07/18 08:19:32;;;;;;;6.47;2.20;;;17.50;99.90;;;;;;5014880;28;20204;-78
2023/07/18 08:21:58;;;;;;;7.53;2.43;;;17.70;1.00;;;;;;5016271;28;20637;-78
2023/07/18 08:24:23;;;;;;;6.80;2.30;;;17.90;1.00;;;;;;5015694;28;20188;-78
2023/07/18 08:26:49;;;;;;;5.97;2.03;;;18.00;1.00;;;;;;5013906;28;20177;-78
2023/07/18 08:29:14;;;;;;;5.23;2.20;;;18.20;1.00;;;;;;5015207;28;20181;-78
2023/07/18 08:31:41;;;;;;;6.47;2.10;;;18.20;1.00;;;;;;5015161;28;20260;-78
2023/07/18 08:34:06;;;;;;;6.57;2.20;;;18.20;1.00;;;;;;5013739;28;20271;-78
2023/07/18 08:36:35;;;;;;;5.73;1.93;;;18.30;1.00;;;;;;5015276;28;20703;-78
2023/07/18 08:39:01;;;;;;;4.00;1.90;;;18.40;1.00;;;;;;5014177;28;20180;-78
2023/07/18 08:41:28;;;;;;;7.13;1.90;;;18.30;99.90;;;;;;5015374;28;20177;-78
2023/07/18 08:43:54;;;;;;;4.57;1.90;;;18.50;1.00;;;;;;5014223;28;20177;-77
2023/07/18 08:46:20;;;;;;;3.47;1.63;;;18.60;99.90;;;;;;5014001;28;20177;-77
2023/07/18 08:48:47;;;;;;;7.53;1.77;;;18.70;1.00;;;;;;5014609;28;20356;-78
2023/07/18 08:51:14;;;;;;;4.93;1.90;;;18.90;1.00;;;;;;5014587;28;20235;-78
2023/07/18 08:53:42;;;;;;;6.33;1.90;;;19.00;99.90;;;;;;5015124;28;20199;-78
2023/07/18 08:56:09;;;;;;;10.57;2.10;;;19.10;99.90;;;;;;5015053;28;20248;-78
2023/07/18 08:58:38;;;;;;;7.93;1.80;;;19.20;1.00;;;;;;5014235;28;20212;-78
2023/07/18 09:01:08;;;;;;;5.20;1.70;;;19.20;99.90;;;;;;5015694;28;20534;-78
2023/07/18 09:03:33;;;;;;;4.77;2.03;;;19.40;99.90;;;;;;5014968;28;20176;-78
2023/07/18 09:06:03;;;;;;;3.10;1.57;;;19.50;99.90;;;;;;5014905;28;20169;-79
2023/07/18 09:08:40;;;;;;;3.57;1.27;;;19.60;99.90;;;;;;5017019;28;20165;-79
2023/07/18 09:11:05;;;;;;;9.10;1.80;;;19.70;99.90;;;;;;5014116;28;20785;-77
2023/07/18 09:13:37;;;;;;;8.93;1.73;;;19.90;1.00;;;;;;5012460;28;20284;-77
2023/07/18 09:16:20;;;;;;;6.23;1.50;;;20.00;1.00;;;;;;5015094;28;20164;-78
2023/07/18 09:18:55;;;;;;;4.93;1.70;;;20.10;1.00;;;;;;5016220;28;20200;-78
2023/07/18 09:21:23;;;;;;;4.03;1.70;;;20.20;1.00;;;;;;5013736;28;20215;-78
2023/07/18 09:23:49;;;;;;;4.20;1.30;;;20.30;98.90;;;;;;5014492;28;20231;-78
2023/07/18 09:26:18;;;;;;;4.47;1.50;;;20.30;99.90;;;;;;5013621;28;20181;-78
2023/07/18 09:28:43;;;;;;;6.13;1.70;;;20.40;1.00;;;;;;5014354;28;20177;-78
2023/07/18 09:31:19;;;;;;;2.37;1.30;;;20.50;7.80;;;;;;5012876;28;20208;-78
2023/07/18 09:33:46;;;;;;;4.20;1.20;;;20.50;1.00;;;;;;5014007;28;20205;-78
2023/07/18 09:36:23;;;;;;;3.37;1.13;;;20.60;99.90;;;;;;5015819;28;20191;-79
2023/07/18 09:38:49;;;;;;;2.03;1.03;;;20.70;1.00;;;;;;5014478;28;20172;-79
2023/07/18 09:41:16;;;;;;;7.93;1.30;;;20.70;1.00;;;;;;5016007;28;20554;-79
2023/07/18 09:43:43;;;;;;;2.83;1.20;;;20.80;1.00;;;;;;5019964;28;20240;-79
2023/07/18 09:46:12;;;;;;;5.53;1.27;;;20.80;99.90;;;;;;5024217;28;20173;-79
2023/07/18 09:48:43;;;;;;;4.07;1.43;;;20.80;1.00;;;;;;5013752;28;20606;-79
2023/07/18 09:51:10;;;;;;;4.13;1.10;;;21.00;1.00;;;;;;5015509;28;20225;-79
2023/07/18 09:53:43;;;;;;;6.40;1.10;;;21.10;29.20;;;;;;5014425;28;20197;-77
2023/07/18 09:56:10;;;;;;;3.53;1.30;;;21.20;99.90;;;;;;5012392;28;20698;-77
2023/07/18 09:58:38;;;;;;;2.13;1.20;;;21.40;1.00;;;;;;5012423;28;20668;-78
2023/07/18 10:01:07;;;;;;;3.60;1.30;;;21.50;1.00;;;;;;5013585;28;20590;-78
2023/07/18 10:03:33;;;;;;;3.47;1.40;;;21.60;1.00;;;;;;5013620;28;20176;-78
2023/07/18 10:05:58;;;;;;;4.93;1.20;;;21.70;1.00;;;;;;5012137;28;20664;-78
2023/07/18 10:08:24;;;;;;;5.27;1.10;;;21.90;1.00;;;;;;5012270;28;20176;-78
2023/07/18 10:11:02;;;;;;;2.80;1.40;;;22.00;1.00;;;;;;5013595;28;20197;-78
2023/07/18 10:13:29;;;;;;;4.70;1.40;;;21.90;1.00;;;;;;5012528;28;20204;-78
2023/07/18 10:16:12;;;;;;;3.43;1.27;;;21.90;1.00;;;;;;5013845;28;20177;-77
2023/07/18 10:18:49;;;;;;;3.50;1.30;;;21.90;99.90;;;;;;5012630;28;20200;-78
2023/07/18 10:21:34;;;;;;;6.53;1.40;;;21.80;99.90;;;;;;5013720;28;20191;-77
2023/07/18 10:24:21;;;;;;;11.40;1.30;;;21.70;1.00;;;;;;5012761;28;20184;-78
2023/07/18 10:27:06;;;;;;;6.83;2.13;;;21.70;99.90;;;;;;5012050;28;20231;-78
2023/07/18 10:29:32;;;;;;;4.67;1.17;;;21.70;1.00;;;;;;5013729;28;20566;-77
2023/07/18 10:32:02;;;;;;;3.53;1.43;;;21.70;99.90;;;;;;5014422;28;20173;-78
2023/07/18 10:34:28;;;;;;;6.27;1.60;;;21.70;99.90;;;;;;5017933;28;20504;-77
2023/07/18 10:36:59;;;;;;;6.93;1.40;;;21.80;1.00;;;;;;5016441;28;20265;-78
2023/07/18 10:39:54;;;;;;;4.67;2.00;;;21.60;99.90;;;;;;5016596;28;20203;-77
2023/07/18 10:42:21;;;;;;;4.50;1.53;;;21.80;99.90;;;;;;5010086;28;20196;-78
2023/07/18 10:45:06;;;;;;;6.97;1.77;;;22.00;99.90;;;;;;5018411;28;20173;-78
2023/07/18 10:47:36;;;;;;;5.17;1.50;;;21.80;51.30;;;;;;5017800;28;20459;-78
2023/07/18 10:50:03;;;;;;;7.80;1.80;;;21.90;99.90;;;;;;5016398;28;20197;-78
2023/07/18 10:52:29;;;;;;;6.00;1.70;;;21.90;99.90;;;;;;5017372;28;20184;-78
2023/07/18 10:54:59;;;;;;;5.30;1.40;;;21.90;13.90;;;;;;5016047;28;20300;-78
2023/07/18 10:57:27;;;;;;;4.30;1.70;;;21.80;99.90;;;;;;5015904;28;20652;-78
2023/07/18 10:59:53;;;;;;;8.13;1.60;;;21.80;99.90;;;;;;5016098;28;20238;-78
2023/07/18 11:02:22;;;;;;;6.17;1.97;;;21.80;99.90;;;;;;5015991;28;20516;-78
2023/07/18 11:04:51;;;;;;;7.27;1.80;;;21.80;99.90;;;;;;5017797;28;20540;-78
2023/07/18 11:07:16;;;;;;;5.93;1.90;;;21.90;99.90;;;;;;5016188;28;20188;-78
2023/07/18 11:09:42;;;;;;;5.17;1.70;;;21.90;99.90;;;;;;5016881;28;20192;-78
2023/07/18 11:12:17;;;;;;;4.60;2.00;;;22.00;99.90;;;;;;5017311;28;20536;-78
2023/07/18 11:14:44;;;;;;;6.60;1.57;;;22.00;99.90;;;;;;5016945;28;20279;-79
2023/07/18 11:17:17;;;;;;;4.03;1.27;;;22.10;99.90;;;;;;5017389;28;20177;-79
2023/07/18 11:19:43;;;;;;;6.53;1.33;;;22.00;99.90;;;;;;5016633;28;20208;-79
2023/07/18 11:22:13;;;;;;;4.03;1.37;;;22.10;99.90;;;;;;5017102;28;20664;-78
2023/07/18 11:24:39;;;;;;;5.93;1.60;;;22.10;99.90;;;;;;5016252;28;20177;-79
2023/07/18 11:27:18;;;;;;;4.30;1.40;;;22.10;99.90;;;;;;5016004;28;20287;-78
2023/07/18 11:29:57;;;;;;;5.23;1.60;;;22.20;99.90;;;;;;5017019;28;20193;-79
2023/07/18 11:32:30;;;;;;;4.90;1.60;;;22.40;99.90;;;;;;5016873;28;20173;-79
2023/07/18 11:34:59;;;;;;;3.73;1.43;;;22.40;99.90;;;;;;5017056;28;20240;-79
2023/07/18 11:37:25;;;;;;;4.50;1.50;;;22.40;99.90;;;;;;5015796;28;20636;-78
2023/07/18 11:39:51;;;;;;;3.60;1.27;;;22.70;99.90;;;;;;5016555;28;20636;-80
2023/07/18 11:42:17;;;;;;;5.97;1.43;;;23.00;99.90;;;;;;5017696;28;20295;-80
2023/07/18 11:44:43;;;;;;;4.37;1.50;;;22.80;99.90;;;;;;5017931;28;20263;-80
2023/07/18 11:47:13;;;;;;;4.87;1.30;;;22.90;99.90;;;;;;5018388;28;20177;-80
2023/07/18 11:49:39;;;;;;;4.40;1.63;;;22.80;99.90;;;;;;5016170;28;20196;-80
2023/07/18 11:52:06;;;;;;;3.80;1.50;;;22.80;99.90;;;;;;5018679;28;20169;-80
2023/07/18 11:54:38;;;;;;;7.77;1.50;;;22.80;99.90;;;;;;5021095;28;20286;-80
2023/07/18 11:57:05;;;;;;;5.00;1.50;;;22.90;68.10;;;;;;5038202;28;20291;-80
2023/07/18 11:59:31;;;;;;;3.97;1.67;;;22.90;1.00;;;;;;5027932;28;20216;-80
2023/07/18 12:01:57;;;;;;;4.00;1.40;;;22.90;47.50;;;;;;5015719;28;20211;-80
2023/07/18 12:04:22;;;;;;;6.90;1.60;;;22.80;5.30;;;;;;5016584;28;20568;-80
2023/07/18 12:06:48;;;;;;;5.63;1.73;;;22.80;89.30;;;;;;5018014;28;20177;-80
2023/07/18 12:09:14;;;;;;;8.00;1.77;;;22.90;90.40;;;;;;5017375;28;20164;-80
2023/07/18 12:11:40;;;;;;;4.57;1.30;;;23.00;28.80;;;;;;5016716;28;20268;-80
2023/07/18 12:14:08;;;;;;;4.77;1.43;;;23.20;99.90;;;;;;5017266;28;20203;-80
2023/07/18 12:16:35;;;;;;;4.77;1.60;;;23.20;66.20;;;;;;5016646;28;20172;-79
2023/07/18 12:19:00;;;;;;;4.90;1.70;;;23.40;2.70;;;;;;5015275;28;20180;-80
2023/07/18 12:21:26;;;;;;;4.97;1.67;;;23.50;1.00;;;;;;5010978;28;20581;-79
2023/07/18 12:23:51;;;;;;;5.33;1.73;;;23.60;1.00;;;;;;5014936;28;20639;-79
2023/07/18 12:26:17;;;;;;;4.57;1.90;;;23.60;1.00;;;;;;5019690;28;20206;-79
2023/07/18 12:28:42;;;;;;;5.17;1.77;;;23.40;1.00;;;;;;5017088;28;20185;-79
2023/07/18 12:31:08;;;;;;;5.20;1.80;;;23.60;1.00;;;;;;5016509;28;20199;-78
2023/07/18 12:33:34;;;;;;;6.57;1.77;;;23.60;1.00;;;;;;5013591;28;20681;-80
2023/07/18 12:35:59;;;;;;;3.07;1.80;;;23.70;1.00;;;;;;5016183;28;20207;-79
2023/07/18 12:38:25;;;;;;;2.83;1.70;;;23.90;24.10;;;;;;5016104;28;20641;-78
2023/07/18 12:40:51;;;;;;;3.80;1.40;;;24.00;53.60;;;;;;5015737;28;20672;-78
2023/07/18 12:43:16;;;;;;;5.73;2.10;;;23.90;60.20;;;;;;5015913;28;20268;-78
2023/07/18 12:45:42;;;;;;;2.47;1.70;;;24.00;1.00;;;;;;5015732;28;20614;-79
2023/07/18 12:48:07;;;;;;;3.63;1.77;;;24.00;28.20;;;;;;5015152;28;20611;-78